Lindenwood, Illinois
Current Conditions -  °F | °C
As of 5:55 AM on Monday 24 Nov 2014 (Local Time) from KRPJ Reporting Station
Haze Haze  
Wind Chill: 34°   Ceiling: 400
Heat Index: 40°   Visibility: 5mi
Dew Point: 40°   Wind: 10mph
Humidity: 100%   Direction: 290°WNW
Pressure: 29.11"   Gusts: 16mph
Location:  42.05°N, 89.03°W
Report Text: KRPJ 241155Z AUTO 29009G14KT 5SM BR OVC004 05/05 A2911 RMK AO2 70035 T00460046 10077 20046
Loading
Personal Weather Stations






























Interactive Weather Map New forecast layout! Learn more

10-Day Weather Forecast

Advertisements
Track Severe Weather on mobile